createdAt,value
2022-12-13T00:00:07.374Z,1024.6
2022-12-13T00:00:43.462Z,1024.6
2022-12-13T00:02:07.446Z,1024.6
2022-12-13T00:04:11.999Z,1024.6
2022-12-13T00:06:07.438Z,1024.6
2022-12-13T00:07:34.203Z,1024.6
2022-12-13T00:08:07.449Z,1024.7
2022-12-13T00:09:44.953Z,1024.7
2022-12-13T00:10:15.189Z,1024.7
2022-12-13T00:12:07.478Z,1024.7
2022-12-13T00:14:11.705Z,1024.7
2022-12-13T00:14:29.541Z,1024.7
2022-12-13T00:15:25.782Z,1024.7
2022-12-13T00:16:07.456Z,1024.8
2022-12-13T00:16:50.309Z,1024.8
2022-12-13T00:18:07.485Z,1024.8
2022-12-13T00:19:10.952Z,1024.8
2022-12-13T00:20:11.572Z,1024.8
2022-12-13T00:22:07.586Z,1024.8
2022-12-13T00:22:08.802Z,1024.8
2022-12-13T00:23:31.493Z,1024.8
2022-12-13T00:24:07.488Z,1024.8
2022-12-13T00:26:25.089Z,1024.9
2022-12-13T00:27:29.606Z,1024.9
2022-12-13T00:30:08.887Z,1024.9
2022-12-13T00:30:38.950Z,1024.9
2022-12-13T00:32:09.525Z,1024.9
2022-12-13T00:34:07.425Z,1025
2022-12-13T00:36:07.439Z,1025
2022-12-13T00:38:08.467Z,1025
2022-12-13T00:40:07.382Z,1025
2022-12-13T00:42:07.413Z,1025
2022-12-13T00:44:07.376Z,1025
2022-12-13T00:46:07.341Z,1025.1
2022-12-13T00:48:07.348Z,1025.1
2022-12-13T00:50:07.334Z,1025.1
2022-12-13T00:52:07.331Z,1025.1
2022-12-13T00:54:07.362Z,1025.2
2022-12-13T00:56:07.294Z,1025.2
2022-12-13T00:58:07.349Z,1025.2
2022-12-13T01:00:07.332Z,1025.2
2022-12-13T01:02:07.346Z,1025.2
2022-12-13T01:04:07.275Z,1025.2
2022-12-13T01:06:15.810Z,1025.2
2022-12-13T01:08:07.328Z,1025.2
2022-12-13T01:10:07.309Z,1025.2
2022-12-13T01:12:07.400Z,1025.2
2022-12-13T01:14:07.509Z,1025.2
2022-12-13T01:16:07.244Z,1025.2
2022-12-13T01:18:07.285Z,1025.2
2022-12-13T01:20:13.480Z,1025.2
2022-12-13T01:22:08.670Z,1025.2
2022-12-13T01:24:07.364Z,1025.2
2022-12-13T01:26:07.367Z,1025.2
2022-12-13T01:28:07.438Z,1025.1
2022-12-13T01:30:07.425Z,1025.1
2022-12-13T01:32:07.298Z,1025.1
2022-12-13T01:34:07.358Z,1025.1
2022-12-13T01:36:07.356Z,1025.1
2022-12-13T01:38:08.313Z,1025.1
2022-12-13T01:40:15.709Z,1025.1
2022-12-13T01:42:09.155Z,1025.1
2022-12-13T01:44:07.530Z,1025.1
2022-12-13T01:46:07.370Z,1025.2
2022-12-13T01:48:25.118Z,1025.1
2022-12-13T01:50:07.301Z,1025.1
2022-12-13T01:52:07.420Z,1025.1
2022-12-13T01:54:09.699Z,1025.1
2022-12-13T01:56:07.326Z,1025.1
2022-12-13T01:58:08.528Z,1025.1
2022-12-13T02:00:08.589Z,1025.1
2022-12-13T02:02:07.386Z,1025.1
2022-12-13T02:04:08.376Z,1025.1
2022-12-13T02:06:07.421Z,1025.2
2022-12-13T02:08:07.378Z,1025.2
2022-12-13T02:10:07.244Z,1025.3
2022-12-13T02:12:07.321Z,1025.3
2022-12-13T02:14:07.265Z,1025.3
2022-12-13T02:16:07.274Z,1025.3
2022-12-13T02:18:08.776Z,1025.3
2022-12-13T02:20:07.257Z,1025.3
2022-12-13T02:22:07.245Z,1025.3
2022-12-13T02:24:08.580Z,1025.3
2022-12-13T02:26:08.745Z,1025.4
2022-12-13T02:28:21.454Z,1025.3
2022-12-13T02:30:08.407Z,1025.3
2022-12-13T02:32:07.385Z,1025.4
2022-12-13T02:34:07.275Z,1025.3
2022-12-13T02:36:11.739Z,1025.3
2022-12-13T02:38:07.463Z,1025.4
2022-12-13T02:40:07.491Z,1025.4
2022-12-13T02:42:21.132Z,1025.4
2022-12-13T02:44:13.037Z,1025.3
2022-12-13T02:46:07.292Z,1025.3
2022-12-13T02:48:07.250Z,1025.3
2022-12-13T02:50:07.175Z,1025.3
2022-12-13T02:52:07.155Z,1025.4
2022-12-13T02:54:07.176Z,1025.3
2022-12-13T02:56:07.167Z,1025.3
2022-12-13T02:58:07.158Z,1025.3
2022-12-13T03:00:07.189Z,1025.4
2022-12-13T03:02:09.543Z,1025.3
2022-12-13T03:04:07.273Z,1025.3
2022-12-13T03:06:08.868Z,1025.3
2022-12-13T03:08:07.298Z,1025.3
2022-12-13T03:10:07.189Z,1025.3
2022-12-13T03:12:07.219Z,1025.3
2022-12-13T03:14:08.294Z,1025.3
2022-12-13T03:16:09.695Z,1025.4
2022-12-13T03:18:07.366Z,1025.3
2022-12-13T03:20:12.817Z,1025.4
2022-12-13T03:22:07.123Z,1025.4
2022-12-13T03:24:07.107Z,1025.4
2022-12-13T03:26:07.098Z,1025.3
2022-12-13T03:28:07.140Z,1025.3
2022-12-13T03:30:07.175Z,1025.3
2022-12-13T03:32:07.138Z,1025.3
2022-12-13T03:34:07.144Z,1025.3
2022-12-13T03:36:07.194Z,1025.4
2022-12-13T03:38:07.155Z,1025.4
2022-12-13T03:40:07.081Z,1025.4
2022-12-13T03:42:07.105Z,1025.4
2022-12-13T03:44:07.065Z,1025.4
2022-12-13T03:46:07.157Z,1025.4
2022-12-13T03:48:07.206Z,1025.4
2022-12-13T03:50:07.663Z,1025.3
2022-12-13T03:52:11.294Z,1025.3
2022-12-13T03:54:07.138Z,1025.3
2022-12-13T03:56:07.084Z,1025.3
2022-12-13T03:58:08.055Z,1025.3
2022-12-13T04:00:07.056Z,1025.3
2022-12-13T04:02:07.167Z,1025.3
2022-12-13T04:04:07.100Z,1025.3
2022-12-13T04:06:07.105Z,1025.3
2022-12-13T04:08:22.180Z,1025.3
2022-12-13T04:10:25.093Z,1025.3
2022-12-13T04:12:07.102Z,1025.3
2022-12-13T04:14:07.100Z,1025.3
2022-12-13T04:16:07.142Z,1025.3
2022-12-13T04:18:07.205Z,1025.3
2022-12-13T04:20:07.066Z,1025.4
2022-12-13T04:22:07.088Z,1025.4
2022-12-13T04:24:07.091Z,1025.4
2022-12-13T04:26:07.056Z,1025.3
2022-12-13T04:28:07.074Z,1025.3
2022-12-13T04:30:07.073Z,1025.4
2022-12-13T04:32:27.067Z,1025.4
2022-12-13T04:34:07.108Z,1025.4
2022-12-13T04:36:07.068Z,1025.4
2022-12-13T04:38:07.027Z,1025.4
2022-12-13T04:40:07.076Z,1025.4
2022-12-13T04:42:07.415Z,1025.4
2022-12-13T04:44:07.100Z,1025.4
2022-12-13T04:46:07.081Z,1025.4
2022-12-13T04:48:07.078Z,1025.4
2022-12-13T04:50:07.018Z,1025.4
2022-12-13T04:52:07.027Z,1025.4
2022-12-13T04:54:23.775Z,1025.3
2022-12-13T04:56:06.992Z,1025.3
2022-12-13T04:58:07.082Z,1025.3
2022-12-13T05:00:07.031Z,1025.3
2022-12-13T05:02:07.040Z,1025.2
2022-12-13T05:04:07.127Z,1025.3
2022-12-13T05:06:07.193Z,1025.3
2022-12-13T05:08:08.200Z,1025.3
2022-12-13T05:10:07.033Z,1025.3
2022-12-13T05:12:12.959Z,1025.3
2022-12-13T05:14:07.014Z,1025.4
2022-12-13T05:16:08.272Z,1025.4
2022-12-13T05:18:09.685Z,1025.4
2022-12-13T05:20:12.938Z,1025.4
2022-12-13T05:22:07.030Z,1025.4
2022-12-13T05:24:07.070Z,1025.4
2022-12-13T05:25:08.631Z,1025.4
2022-12-13T05:26:13.206Z,1025.3
2022-12-13T05:28:08.688Z,1025.3
2022-12-13T05:30:11.351Z,1025.4
2022-12-13T05:32:08.246Z,1025.4
2022-12-13T05:34:06.974Z,1025.3
2022-12-13T05:36:06.961Z,1025.3
2022-12-13T05:38:08.271Z,1025.3
2022-12-13T05:40:06.960Z,1025.3
2022-12-13T05:42:07.094Z,1025.3
2022-12-13T05:44:07.281Z,1025.3
2022-12-13T05:46:07.006Z,1025.2
2022-12-13T05:48:09.576Z,1025.2
2022-12-13T05:50:06.937Z,1025.3
2022-12-13T05:52:06.974Z,1025.3
2022-12-13T05:54:06.935Z,1025.3
2022-12-13T05:56:06.979Z,1025.3
2022-12-13T05:58:06.957Z,1025.3
2022-12-13T06:00:06.942Z,1025.4
2022-12-13T06:02:07.091Z,1025.4
2022-12-13T06:04:06.956Z,1025.4
2022-12-13T06:06:06.978Z,1025.4
2022-12-13T06:08:24.223Z,1025.4
2022-12-13T06:10:09.495Z,1025.4
2022-12-13T06:12:06.949Z,1025.5
2022-12-13T06:14:06.916Z,1025.5
2022-12-13T06:16:06.944Z,1025.5
2022-12-13T06:18:07.087Z,1025.5
2022-12-13T06:20:23.036Z,1025.5
2022-12-13T06:22:06.929Z,1025.6
2022-12-13T06:24:06.951Z,1025.6
2022-12-13T06:26:06.891Z,1025.6
2022-12-13T06:28:06.870Z,1025.6
2022-12-13T06:30:06.965Z,1025.6
2022-12-13T06:32:06.913Z,1025.6
2022-12-13T06:34:14.059Z,1025.6
2022-12-13T06:36:06.956Z,1025.6
2022-12-13T06:38:11.823Z,1025.6
2022-12-13T06:40:06.873Z,1025.6
2022-12-13T06:42:06.972Z,1025.6
2022-12-13T06:44:06.886Z,1025.6
2022-12-13T06:46:09.155Z,1025.6
2022-12-13T06:48:06.905Z,1025.6
2022-12-13T06:50:06.893Z,1025.7
2022-12-13T06:52:06.906Z,1025.7
2022-12-13T06:54:08.049Z,1025.7
2022-12-13T06:56:06.949Z,1025.7
2022-12-13T06:58:06.883Z,1025.8
2022-12-13T07:00:06.856Z,1025.8
2022-12-13T07:02:06.912Z,1025.9
2022-12-13T07:04:30.406Z,1025.9
2022-12-13T07:06:11.197Z,1025.9
2022-12-13T07:08:06.878Z,1026
2022-12-13T07:10:06.841Z,1025.9
2022-12-13T07:12:06.909Z,1025.9
2022-12-13T07:14:06.819Z,1025.9
2022-12-13T07:16:06.887Z,1025.9
2022-12-13T07:18:06.843Z,1025.9
2022-12-13T07:20:06.831Z,1025.9
2022-12-13T07:22:06.852Z,1025.9
2022-12-13T07:24:08.212Z,1025.9
2022-12-13T07:26:06.811Z,1025.9
2022-12-13T07:28:06.813Z,1025.9
2022-12-13T07:30:06.837Z,1025.9
2022-12-13T07:32:06.823Z,1025.9
2022-12-13T07:34:06.820Z,1025.9
2022-12-13T07:36:06.807Z,1025.9
2022-12-13T07:38:06.840Z,1025.9
2022-12-13T07:40:06.803Z,1025.9
2022-12-13T07:42:06.863Z,1026
2022-12-13T07:44:06.799Z,1026
2022-12-13T07:46:06.806Z,1025.9
2022-12-13T07:48:09.413Z,1026
2022-12-13T07:50:06.859Z,1026
2022-12-13T07:52:06.821Z,1026
2022-12-13T07:54:07.198Z,1026
2022-12-13T07:56:07.807Z,1026
2022-12-13T07:58:06.799Z,1026
2022-12-13T08:00:06.753Z,1025.9
2022-12-13T08:02:06.890Z,1025.9
2022-12-13T08:04:06.770Z,1025.9
2022-12-13T08:06:06.773Z,1026
2022-12-13T08:08:06.835Z,1025.9
2022-12-13T08:10:06.743Z,1026
2022-12-13T08:12:06.788Z,1025.9
2022-12-13T08:14:06.748Z,1026
2022-12-13T08:16:25.825Z,1026
2022-12-13T08:18:06.789Z,1025.9
2022-12-13T08:20:06.771Z,1025.9
2022-12-13T08:22:06.758Z,1025.9
2022-12-13T08:24:09.940Z,1025.9
2022-12-13T08:26:06.767Z,1025.9
2022-12-13T08:28:08.133Z,1025.9
2022-12-13T08:30:06.723Z,1025.8
2022-12-13T08:32:06.771Z,1025.9
2022-12-13T08:34:06.743Z,1025.9
2022-12-13T08:36:06.760Z,1026
2022-12-13T08:38:06.732Z,1026
2022-12-13T08:40:06.739Z,1026
2022-12-13T08:42:15.620Z,1026
2022-12-13T08:44:06.720Z,1026
2022-12-13T08:46:06.753Z,1026
2022-12-13T08:48:07.903Z,1026
2022-12-13T08:50:06.743Z,1026
2022-12-13T08:52:06.710Z,1025.9
2022-12-13T08:54:09.957Z,1025.9
2022-12-13T08:56:06.688Z,1025.9
2022-12-13T08:58:06.689Z,1025.9
2022-12-13T09:00:06.842Z,1025.9
2022-12-13T09:02:06.811Z,1026
2022-12-13T09:04:06.701Z,1026
2022-12-13T09:06:06.736Z,1026
2022-12-13T09:08:13.277Z,1026
2022-12-13T09:10:07.414Z,1026
2022-12-13T09:12:10.208Z,1026
2022-12-13T09:14:06.706Z,1026
2022-12-13T09:16:13.748Z,1026
2022-12-13T09:18:06.713Z,1026
2022-12-13T09:20:09.850Z,1026
2022-12-13T09:22:06.697Z,1026
2022-12-13T09:24:06.693Z,1026
2022-12-13T09:26:06.654Z,1026
2022-12-13T09:28:06.670Z,1026.1
2022-12-13T09:30:06.676Z,1026.1
2022-12-13T09:32:06.868Z,1026.1
2022-12-13T09:34:06.706Z,1026.1
2022-12-13T09:36:06.685Z,1026.1
2022-12-13T09:38:06.668Z,1026.1
2022-12-13T09:40:15.867Z,1026.1
2022-12-13T09:42:10.501Z,1026
2022-12-13T09:44:06.697Z,1026.1
2022-12-13T09:46:13.169Z,1026.1
2022-12-13T09:48:13.319Z,1026.1
2022-12-13T09:50:14.639Z,1026
2022-12-13T09:52:11.484Z,1026
2022-12-13T09:54:06.903Z,1026.1
2022-12-13T09:56:10.709Z,1026.1
2022-12-13T09:58:11.411Z,1026.1
2022-12-13T10:00:06.950Z,1026.1
2022-12-13T10:02:17.163Z,1026.1
2022-12-13T10:04:06.742Z,1026.1
2022-12-13T10:06:06.832Z,1026.1
2022-12-13T10:08:09.112Z,1026.1
2022-12-13T10:10:06.699Z,1026.1
2022-12-13T10:12:06.729Z,1026.1
2022-12-13T10:14:06.618Z,1026.2
2022-12-13T10:16:06.643Z,1026.2
2022-12-13T10:18:06.637Z,1026.2
2022-12-13T10:20:06.702Z,1026.2
2022-12-13T10:22:09.176Z,1026.2
2022-12-13T10:24:25.091Z,1026.2
2022-12-13T10:26:06.649Z,1026.3
2022-12-13T10:28:06.578Z,1026.3
2022-12-13T10:30:07.715Z,1026.3
2022-12-13T10:32:06.652Z,1026.3
2022-12-13T10:34:07.976Z,1026.3
2022-12-13T10:36:06.634Z,1026.4
2022-12-13T10:38:07.985Z,1026.3
2022-12-13T10:40:06.582Z,1026.4
2022-12-13T10:42:06.603Z,1026.3
2022-12-13T10:44:11.245Z,1026.4
2022-12-13T10:46:06.631Z,1026.4
2022-12-13T10:48:06.543Z,1026.4
2022-12-13T10:50:06.595Z,1026.4
2022-12-13T10:52:06.563Z,1026.5
2022-12-13T10:54:06.564Z,1026.5
2022-12-13T10:56:06.545Z,1026.6
2022-12-13T10:58:06.644Z,1026.6
2022-12-13T11:00:06.553Z,1026.6
2022-12-13T11:02:06.596Z,1026.6
2022-12-13T11:04:06.528Z,1026.6
2022-12-13T11:06:06.542Z,1026.7
2022-12-13T11:08:06.534Z,1026.7
2022-12-13T11:10:06.535Z,1026.7
2022-12-13T11:12:06.608Z,1026.7
2022-12-13T11:14:09.051Z,1026.7
2022-12-13T11:16:06.600Z,1026.8
2022-12-13T11:18:06.536Z,1026.7
2022-12-13T11:20:06.533Z,1026.8
2022-12-13T11:22:06.563Z,1026.8
2022-12-13T11:24:06.542Z,1026.8
2022-12-13T11:26:14.076Z,1026.9
2022-12-13T11:28:25.623Z,1026.9
2022-12-13T11:30:06.557Z,1026.9
2022-12-13T11:32:06.801Z,1026.9
2022-12-13T11:34:06.510Z,1027
2022-12-13T11:36:06.507Z,1026.9
2022-12-13T11:38:06.510Z,1026.9
2022-12-13T11:40:07.741Z,1026.9
2022-12-13T11:42:07.945Z,1026.9
2022-12-13T11:44:07.688Z,1027
2022-12-13T11:46:06.622Z,1027
2022-12-13T11:48:06.583Z,1027
2022-12-13T11:50:06.502Z,1027.1
2022-12-13T11:52:07.902Z,1027.1
2022-12-13T11:54:06.446Z,1027.2
2022-12-13T11:56:06.455Z,1027.2
2022-12-13T11:58:06.469Z,1027.3
2022-12-13T12:00:33.469Z,1027.3
2022-12-13T12:02:28.965Z,1027.3
2022-12-13T12:04:06.455Z,1027.3
2022-12-13T12:06:11.533Z,1027.3
2022-12-13T12:08:31.447Z,1027.3
2022-12-13T12:10:06.607Z,1027.3
2022-12-13T12:12:22.209Z,1027.4
2022-12-13T12:13:19.994Z,1027.4
2022-12-13T12:14:12.389Z,1027.4
2022-12-13T12:16:06.635Z,1027.4
2022-12-13T12:18:07.733Z,1027.4
2022-12-13T12:20:27.506Z,1027.4
2022-12-13T12:22:15.317Z,1027.5
2022-12-13T12:24:06.525Z,1027.5
2022-12-13T12:26:07.172Z,1027.4
2022-12-13T12:28:07.965Z,1027.4
2022-12-13T12:30:06.586Z,1027.4
2022-12-13T12:32:06.577Z,1027.4
2022-12-13T12:34:06.451Z,1027.4
2022-12-13T12:36:06.479Z,1027.4
2022-12-13T12:38:06.529Z,1027.4
2022-12-13T12:40:10.798Z,1027.4
2022-12-13T12:42:07.905Z,1027.4
2022-12-13T12:44:07.723Z,1027.4
2022-12-13T12:46:09.101Z,1027.5
2022-12-13T12:48:50.817Z,1027.5
2022-12-13T12:49:09.428Z,1027.5
2022-12-13T12:50:06.424Z,1027.5
2022-12-13T12:52:18.561Z,1027.6
2022-12-13T12:53:37.604Z,1027.6
2022-12-13T12:54:07.699Z,1027.6
2022-12-13T12:56:01.880Z,1027.6
2022-12-13T12:58:06.413Z,1027.6
2022-12-13T12:58:38.524Z,1027.6
2022-12-13T13:00:06.457Z,1027.6
2022-12-13T13:02:18.561Z,1027.6
2022-12-13T13:04:12.317Z,1027.6
2022-12-13T13:06:07.874Z,1027.6
2022-12-13T13:07:22.755Z,1027.6
2022-12-13T13:08:18.159Z,1027.6
2022-12-13T13:10:16.112Z,1027.7
2022-12-13T13:12:09.626Z,1027.7
2022-12-13T13:14:06.510Z,1027.8
2022-12-13T13:16:06.396Z,1027.8
2022-12-13T13:18:10.691Z,1027.8
2022-12-13T13:20:11.733Z,1027.9
2022-12-13T13:22:21.539Z,1027.8
2022-12-13T13:24:27.559Z,1027.8
2022-12-13T13:26:24.525Z,1027.9
2022-12-13T13:28:09.334Z,1027.9
2022-12-13T13:30:08.261Z,1027.9
2022-12-13T13:32:06.469Z,1027.9
2022-12-13T13:34:06.385Z,1027.9
2022-12-13T13:36:06.652Z,1027.9
2022-12-13T13:38:06.386Z,1027.9
2022-12-13T13:40:08.931Z,1027.9
2022-12-13T13:42:09.247Z,1027.9
2022-12-13T13:44:06.333Z,1027.9
2022-12-13T13:46:06.466Z,1027.9
2022-12-13T13:48:14.332Z,1027.9
2022-12-13T13:50:08.528Z,1027.9
2022-12-13T13:52:24.218Z,1028
2022-12-13T13:54:48.532Z,1028
2022-12-13T13:56:06.400Z,1028.1
2022-12-13T13:58:09.572Z,1028.1
2022-12-13T14:00:06.398Z,1028.1
2022-12-13T14:02:06.485Z,1028.1
2022-12-13T14:04:09.309Z,1028.2
2022-12-13T14:06:12.542Z,1028.2
2022-12-13T14:08:07.828Z,1028.3
2022-12-13T14:10:06.407Z,1028.3
2022-12-13T14:12:10.901Z,1028.3
2022-12-13T14:14:06.349Z,1028.4
2022-12-13T14:16:06.468Z,1028.4
2022-12-13T14:18:06.301Z,1028.4
2022-12-13T14:20:12.399Z,1028.4
2022-12-13T14:22:07.756Z,1028.4
2022-12-13T14:24:00.165Z,1028.4
2022-12-13T14:24:06.342Z,1028.5
2022-12-13T14:26:06.300Z,1028.5
2022-12-13T14:28:21.561Z,1028.5
2022-12-13T14:30:17.887Z,1028.6
2022-12-13T14:32:10.781Z,1028.6
2022-12-13T14:34:06.275Z,1028.6
2022-12-13T14:36:07.580Z,1028.6
2022-12-13T14:38:06.634Z,1028.6
2022-12-13T14:40:07.377Z,1028.6
2022-12-13T14:42:21.220Z,1028.6
2022-12-13T14:44:06.357Z,1028.7
2022-12-13T14:46:06.327Z,1028.7
2022-12-13T14:48:34.274Z,1028.7
2022-12-13T14:50:06.322Z,1028.8
2022-12-13T14:52:07.501Z,1028.8
2022-12-13T14:54:08.315Z,1028.7
2022-12-13T14:56:06.308Z,1028.7
2022-12-13T14:58:06.353Z,1028.8
2022-12-13T15:00:24.355Z,1028.8
2022-12-13T15:02:06.391Z,1028.8
2022-12-13T15:04:06.329Z,1028.8
2022-12-13T15:06:06.289Z,1028.8
2022-12-13T15:08:10.348Z,1028.8
2022-12-13T15:10:06.359Z,1028.9
2022-12-13T15:12:15.215Z,1028.9
2022-12-13T15:14:11.291Z,1028.9
2022-12-13T15:16:11.314Z,1028.9
2022-12-13T15:18:12.597Z,1028.9
2022-12-13T15:18:17.172Z,1028.9
2022-12-13T15:20:06.302Z,1028.9
2022-12-13T15:22:06.369Z,1028.9
2022-12-13T15:24:06.976Z,1028.8
2022-12-13T15:26:06.472Z,1028.8
2022-12-13T15:28:06.260Z,1028.8
2022-12-13T15:30:06.322Z,1028.8
2022-12-13T15:32:06.559Z,1028.7
2022-12-13T15:34:06.282Z,1028.8
2022-12-13T15:36:10.693Z,1028.8
2022-12-13T15:38:06.230Z,1028.7
2022-12-13T15:40:06.250Z,1028.7
2022-12-13T15:42:06.305Z,1028.7
2022-12-13T15:44:06.215Z,1028.7
2022-12-13T15:45:53.672Z,1028.7
2022-12-13T15:46:31.925Z,1028.7
2022-12-13T15:48:28.870Z,1028.7
2022-12-13T15:50:06.239Z,1028.7
2022-12-13T15:51:28.792Z,1028.7
2022-12-13T15:52:10.849Z,1028.7
2022-12-13T15:54:12.002Z,1028.7
2022-12-13T15:56:09.796Z,1028.7
2022-12-13T15:58:07.504Z,1028.7
2022-12-13T16:00:12.286Z,1028.7
2022-12-13T16:02:12.443Z,1028.7
2022-12-13T16:04:06.253Z,1028.7
2022-12-13T16:06:07.606Z,1028.8
2022-12-13T16:08:13.662Z,1028.7
2022-12-13T16:10:06.234Z,1028.7
2022-12-13T16:12:06.212Z,1028.7
2022-12-13T16:14:10.408Z,1028.7
2022-12-13T16:16:09.026Z,1028.7
2022-12-13T16:18:06.292Z,1028.6
2022-12-13T16:20:10.890Z,1028.6
2022-12-13T16:22:09.256Z,1028.6
2022-12-13T16:24:16.628Z,1028.5
2022-12-13T16:25:43.735Z,1028.5
2022-12-13T16:26:09.086Z,1028.5
2022-12-13T16:28:16.844Z,1028.5
2022-12-13T16:30:13.749Z,1028.5
2022-12-13T16:32:15.380Z,1028.5
2022-12-13T16:34:06.370Z,1028.5
2022-12-13T16:36:06.220Z,1028.5
2022-12-13T16:38:09.257Z,1028.5
2022-12-13T16:40:06.134Z,1028.5
2022-12-13T16:40:46.719Z,1028.5
2022-12-13T16:42:06.366Z,1028.5
2022-12-13T16:44:10.671Z,1028.4
2022-12-13T16:47:10.934Z,1028.4
2022-12-13T16:48:06.168Z,1028.4
2022-12-13T16:50:10.573Z,1028.4
2022-12-13T16:52:06.254Z,1028.4
2022-12-13T16:54:10.645Z,1028.4
2022-12-13T16:56:08.377Z,1028.4
2022-12-13T16:58:07.440Z,1028.4
2022-12-13T17:00:07.124Z,1028.3
2022-12-13T17:01:49.739Z,1028.3
2022-12-13T17:02:08.237Z,1028.2
2022-12-13T17:04:19.859Z,1028.2
2022-12-13T17:04:50.966Z,1028.2
2022-12-13T17:06:06.315Z,1028.2
2022-12-13T17:08:06.117Z,1028.1
2022-12-13T17:10:20.393Z,1028.1
2022-12-13T17:12:07.761Z,1028
2022-12-13T17:14:06.165Z,1027.9
2022-12-13T17:16:08.087Z,1027.9
2022-12-13T17:18:06.217Z,1027.9
2022-12-13T17:20:06.157Z,1027.9
2022-12-13T17:21:07.618Z,1027.9
2022-12-13T17:22:06.123Z,1027.8
2022-12-13T17:24:06.226Z,1027.7
2022-12-13T17:24:50.022Z,1027.7
2022-12-13T17:26:20.581Z,1027.6
2022-12-13T17:28:13.805Z,1027.6
2022-12-13T17:30:06.047Z,1027.5
2022-12-13T17:32:06.242Z,1027.5
2022-12-13T17:34:07.403Z,1027.5
2022-12-13T17:36:06.332Z,1027.4
2022-12-13T17:38:10.534Z,1027.5
2022-12-13T17:40:10.410Z,1027.5
2022-12-13T17:42:06.122Z,1027.5
2022-12-13T17:44:13.768Z,1027.5
2022-12-13T17:46:06.119Z,1027.5
2022-12-13T17:48:10.298Z,1027.5
2022-12-13T17:50:06.145Z,1027.4
2022-12-13T17:52:06.107Z,1027.4
2022-12-13T17:54:07.318Z,1027.4
2022-12-13T17:56:30.227Z,1027.4
2022-12-13T17:58:06.092Z,1027.3
2022-12-13T18:00:06.479Z,1027.4
2022-12-13T18:02:07.316Z,1027.4
2022-12-13T18:04:10.286Z,1027.4
2022-12-13T18:06:06.111Z,1027.4
2022-12-13T18:07:52.639Z,1027.4
2022-12-13T18:08:06.072Z,1027.4
2022-12-13T18:10:08.032Z,1027.4
2022-12-13T18:12:08.816Z,1027.4
2022-12-13T18:14:06.035Z,1027.4
2022-12-13T18:16:06.175Z,1027.4
2022-12-13T18:18:11.775Z,1027.3
2022-12-13T18:20:11.936Z,1027.2
2022-12-13T18:22:06.033Z,1027.2
2022-12-13T18:24:07.399Z,1027.2
2022-12-13T18:24:46.838Z,1027.2
2022-12-13T18:26:06.010Z,1027.2
2022-12-13T18:28:06.058Z,1027.1
2022-12-13T18:30:07.221Z,1027.1
2022-12-13T18:32:11.893Z,1027.1
2022-12-13T18:34:10.605Z,1027.1
2022-12-13T18:36:31.166Z,1027.1
2022-12-13T18:38:34.642Z,1027.1
2022-12-13T18:40:06.046Z,1027.1
2022-12-13T18:42:20.895Z,1027
2022-12-13T18:44:05.963Z,1027
2022-12-13T18:46:07.293Z,1027
2022-12-13T18:48:06.132Z,1027
2022-12-13T18:50:05.964Z,1027
2022-12-13T18:52:16.351Z,1027
2022-12-13T18:54:06.024Z,1027
2022-12-13T18:56:05.990Z,1027
2022-12-13T18:58:05.948Z,1027
2022-12-13T19:00:05.953Z,1027
2022-12-13T19:02:07.212Z,1027
2022-12-13T19:04:06.030Z,1027
2022-12-13T19:06:05.973Z,1027.1
2022-12-13T19:08:05.985Z,1027.1
2022-12-13T19:10:10.138Z,1027.1
2022-12-13T19:12:06.193Z,1027.2
2022-12-13T19:14:05.990Z,1027.1
2022-12-13T19:16:06.236Z,1027.1
2022-12-13T19:18:05.949Z,1027.1
2022-12-13T19:20:08.493Z,1027.1
2022-12-13T19:22:06.018Z,1027.1
2022-12-13T19:24:05.954Z,1027
2022-12-13T19:26:05.935Z,1027
2022-12-13T19:28:05.920Z,1027
2022-12-13T19:30:06.539Z,1026.9
2022-12-13T19:32:06.086Z,1027
2022-12-13T19:34:07.867Z,1026.9
2022-12-13T19:36:11.870Z,1026.9
2022-12-13T19:38:07.251Z,1026.9
2022-12-13T19:40:06.005Z,1027
2022-12-13T19:42:06.069Z,1027.1
2022-12-13T19:44:05.928Z,1027.1
2022-12-13T19:46:05.986Z,1027.2
2022-12-13T19:46:38.877Z,1027.2
2022-12-13T19:48:08.494Z,1027.2
2022-12-13T19:50:07.197Z,1027.2
2022-12-13T19:52:05.912Z,1027.2
2022-12-13T19:54:08.679Z,1027.2
2022-12-13T19:56:07.248Z,1027.1
2022-12-13T19:57:38.637Z,1027.1
2022-12-13T20:00:06.021Z,1027.1
2022-12-13T20:01:43.332Z,1027.1
2022-12-13T20:02:05.994Z,1027
2022-12-13T20:04:05.883Z,1027
2022-12-13T20:06:08.771Z,1027
2022-12-13T20:08:05.971Z,1026.9
2022-12-13T20:10:05.863Z,1026.9
2022-12-13T20:12:13.465Z,1026.9
2022-12-13T20:14:08.521Z,1026.9
2022-12-13T20:16:08.617Z,1026.9
2022-12-13T20:18:07.189Z,1026.8
2022-12-13T20:20:07.305Z,1026.8
2022-12-13T20:22:10.110Z,1026.8
2022-12-13T20:24:08.838Z,1026.8
2022-12-13T20:26:07.144Z,1026.9
2022-12-13T20:28:10.327Z,1026.9
2022-12-13T20:30:07.226Z,1026.9
2022-12-13T20:32:05.840Z,1026.9
2022-12-13T20:34:05.853Z,1026.9
2022-12-13T20:36:23.958Z,1026.9
2022-12-13T20:38:05.867Z,1026.9
2022-12-13T20:40:11.572Z,1026.9
2022-12-13T20:42:07.101Z,1026.9
2022-12-13T20:44:08.525Z,1026.9
2022-12-13T20:46:08.720Z,1026.9
2022-12-13T20:48:05.934Z,1026.9
2022-12-13T20:50:05.884Z,1026.9
2022-12-13T20:52:06.987Z,1027
2022-12-13T20:54:05.996Z,1027
2022-12-13T20:56:13.446Z,1026.9
2022-12-13T20:58:23.670Z,1026.9
2022-12-13T21:00:07.037Z,1026.9
2022-12-13T21:02:05.921Z,1026.9
2022-12-13T21:04:42.289Z,1026.9
2022-12-13T21:06:05.850Z,1027
2022-12-13T21:08:05.825Z,1027
2022-12-13T21:10:07.955Z,1027
2022-12-13T21:12:07.095Z,1027.1
2022-12-13T21:14:09.057Z,1027.1
2022-12-13T21:16:17.903Z,1027.1
2022-12-13T21:18:05.847Z,1027.1
2022-12-13T21:20:05.877Z,1027.1
2022-12-13T21:22:05.862Z,1027.1
2022-12-13T21:24:05.853Z,1027.1
2022-12-13T21:26:05.786Z,1027.1
2022-12-13T21:28:16.187Z,1027.2
2022-12-13T21:30:05.842Z,1027.1
2022-12-13T21:32:05.955Z,1027.1
2022-12-13T21:34:07.207Z,1027.2
2022-12-13T21:36:28.541Z,1027.2
2022-12-13T21:38:06.970Z,1027.2
2022-12-13T21:40:13.508Z,1027.2
2022-12-13T21:41:04.469Z,1027.2
2022-12-13T21:42:05.771Z,1027.2
2022-12-13T21:44:35.573Z,1027.1
2022-12-13T21:46:07.030Z,1027.1
2022-12-13T21:48:08.463Z,1027.1
2022-12-13T21:50:06.728Z,1027.1
2022-12-13T21:52:28.414Z,1027
2022-12-13T21:54:05.820Z,1027
2022-12-13T21:56:06.156Z,1026.9
2022-12-13T21:58:11.846Z,1026.9
2022-12-13T22:00:05.710Z,1027
2022-12-13T22:02:05.724Z,1027
2022-12-13T22:04:07.279Z,1027
2022-12-13T22:06:05.771Z,1027
2022-12-13T22:08:17.328Z,1027
2022-12-13T22:10:07.023Z,1026.9
2022-12-13T22:12:07.149Z,1027
2022-12-13T22:14:05.768Z,1027
2022-12-13T22:16:05.888Z,1027
2022-12-13T22:18:05.771Z,1027
2022-12-13T22:20:05.854Z,1027
2022-12-13T22:22:05.757Z,1027.1
2022-12-13T22:24:05.807Z,1027
2022-12-13T22:26:06.790Z,1027
2022-12-13T22:28:06.782Z,1027
2022-12-13T22:28:35.262Z,1027
2022-12-13T22:30:06.889Z,1027
2022-12-13T22:32:05.754Z,1027
2022-12-13T22:34:05.810Z,1027
2022-12-13T22:36:08.452Z,1027
2022-12-13T22:38:38.319Z,1027
2022-12-13T22:40:11.321Z,1027
2022-12-13T22:42:20.073Z,1027
2022-12-13T22:44:06.919Z,1027
2022-12-13T22:46:05.802Z,1027
2022-12-13T22:48:05.689Z,1027
2022-12-13T22:50:08.953Z,1027
2022-12-13T22:52:06.809Z,1027.1
2022-12-13T22:54:09.849Z,1027.1
2022-12-13T22:56:05.751Z,1027.1
2022-12-13T22:58:05.689Z,1027
2022-12-13T23:00:09.998Z,1027
2022-12-13T23:02:10.457Z,1027
2022-12-13T23:04:10.285Z,1027.1
2022-12-13T23:06:05.761Z,1027.2
2022-12-13T23:08:16.233Z,1027.2
2022-12-13T23:10:07.170Z,1027.2
2022-12-13T23:12:10.006Z,1027.2
2022-12-13T23:14:05.721Z,1027.3
2022-12-13T23:16:09.993Z,1027.3
2022-12-13T23:18:05.670Z,1027.2
2022-12-13T23:20:05.702Z,1027.2
2022-12-13T23:22:05.645Z,1027.2
2022-12-13T23:24:05.657Z,1027.2
2022-12-13T23:26:05.740Z,1027.2
2022-12-13T23:28:23.520Z,1027.2
2022-12-13T23:30:08.125Z,1027.2
2022-12-13T23:32:07.092Z,1027.3
2022-12-13T23:34:05.704Z,1027.2
2022-12-13T23:36:09.443Z,1027.3
2022-12-13T23:38:05.580Z,1027.3
2022-12-13T23:40:16.249Z,1027.3
2022-12-13T23:42:05.643Z,1027.3
2022-12-13T23:44:05.738Z,1027.3
2022-12-13T23:46:06.744Z,1027.3
2022-12-13T23:48:05.605Z,1027.3
2022-12-13T23:50:08.220Z,1027.3
2022-12-13T23:52:05.571Z,1027.3
2022-12-13T23:54:08.159Z,1027.3
2022-12-13T23:56:05.710Z,1027.3
2022-12-13T23:58:06.909Z,1027.3
